sensor_id;sensor_type;location;lat;lon;timestamp;temperature;humidity
22974;DHT22;11653;50.848;4.584;2023-04-03T00:01:31;3.30;99.90
22974;DHT22;11653;50.848;4.584;2023-04-03T00:03:57;3.30;99.90
22974;DHT22;11653;50.848;4.584;2023-04-03T00:06:24;3.30;99.90
22974;DHT22;11653;50.848;4.584;2023-04-03T00:08:50;3.30;99.90
22974;DHT22;11653;50.848;4.584;2023-04-03T00:11:16;3.30;99.90
22974;DHT22;11653;50.848;4.584;2023-04-03T00:13:42;3.20;99.90
22974;DHT22;11653;50.848;4.584;2023-04-03T00:16:09;3.20;99.90
22974;DHT22;11653;50.848;4.584;2023-04-03T00:18:36;3.10;99.90
22974;DHT22;11653;50.848;4.584;2023-04-03T00:21:03;3.10;99.90
22974;DHT22;11653;50.848;4.584;2023-04-03T00:23:29;3.10;99.90
22974;DHT22;11653;50.848;4.584;2023-04-03T00:25:55;3.00;99.90
22974;DHT22;11653;50.848;4.584;2023-04-03T00:28:21;3.00;99.90
22974;DHT22;11653;50.848;4.584;2023-04-03T00:30:48;3.00;99.90
22974;DHT22;11653;50.848;4.584;2023-04-03T00:33:14;3.00;99.90
22974;DHT22;11653;50.848;4.584;2023-04-03T00:35:40;3.10;99.90
22974;DHT22;11653;50.848;4.584;2023-04-03T00:38:06;3.00;99.90
22974;DHT22;11653;50.848;4.584;2023-04-03T00:40:42;3.00;99.90
22974;DHT22;11653;50.848;4.584;2023-04-03T00:43:14;3.00;99.90
22974;DHT22;11653;50.848;4.584;2023-04-03T00:45:52;3.00;99.90
22974;DHT22;11653;50.848;4.584;2023-04-03T00:48:28;3.00;99.90
22974;DHT22;11653;50.848;4.584;2023-04-03T00:50:56;3.10;99.90
22974;DHT22;11653;50.848;4.584;2023-04-03T00:53:30;3.10;99.90
22974;DHT22;11653;50.848;4.584;2023-04-03T00:55:57;3.20;99.90
22974;DHT22;11653;50.848;4.584;2023-04-03T00:58:30;3.20;99.90
22974;DHT22;11653;50.848;4.584;2023-04-03T01:00:58;3.30;99.90
22974;DHT22;11653;50.848;4.584;2023-04-03T01:03:26;3.50;99.90
22974;DHT22;11653;50.848;4.584;2023-04-03T01:05:52;3.50;99.90
22974;DHT22;11653;50.848;4.584;2023-04-03T01:08:17;3.60;99.90
22974;DHT22;11653;50.848;4.584;2023-04-03T01:10:43;3.70;99.90
22974;DHT22;11653;50.848;4.584;2023-04-03T01:13:30;3.80;99.90
22974;DHT22;11653;50.848;4.584;2023-04-03T01:15:56;3.80;99.90
22974;DHT22;11653;50.848;4.584;2023-04-03T01:18:26;3.80;99.90
22974;DHT22;11653;50.848;4.584;2023-04-03T01:23:43;3.80;99.90
22974;DHT22;11653;50.848;4.584;2023-04-03T01:26:12;3.80;99.90
22974;DHT22;11653;50.848;4.584;2023-04-03T01:28:38;3.80;99.90
22974;DHT22;11653;50.848;4.584;2023-04-03T01:33:51;3.80;99.90
22974;DHT22;11653;50.848;4.584;2023-04-03T01:36:20;3.90;99.90
22974;DHT22;11653;50.848;4.584;2023-04-03T01:38:47;3.80;99.90
22974;DHT22;11653;50.848;4.584;2023-04-03T01:41:13;3.80;99.90
22974;DHT22;11653;50.848;4.584;2023-04-03T01:43:39;3.90;99.90
22974;DHT22;11653;50.848;4.584;2023-04-03T01:46:04;3.80;99.90
22974;DHT22;11653;50.848;4.584;2023-04-03T01:48:30;3.80;99.90
22974;DHT22;11653;50.848;4.584;2023-04-03T01:50:56;3.80;99.90
22974;DHT22;11653;50.848;4.584;2023-04-03T01:53:21;3.80;99.90
22974;DHT22;11653;50.848;4.584;2023-04-03T01:55:48;3.80;99.90
22974;DHT22;11653;50.848;4.584;2023-04-03T01:58:13;3.70;99.90
22974;DHT22;11653;50.848;4.584;2023-04-03T02:00:39;3.70;99.90
22974;DHT22;11653;50.848;4.584;2023-04-03T02:03:05;3.70;99.90
22974;DHT22;11653;50.848;4.584;2023-04-03T02:05:32;3.70;99.90
22974;DHT22;11653;50.848;4.584;2023-04-03T02:07:58;3.60;99.90
22974;DHT22;11653;50.848;4.584;2023-04-03T02:10:24;3.60;99.90
22974;DHT22;11653;50.848;4.584;2023-04-03T02:12:50;3.60;99.90
22974;DHT22;11653;50.848;4.584;2023-04-03T02:15:16;3.50;99.90
22974;DHT22;11653;50.848;4.584;2023-04-03T02:17:42;3.50;99.90
22974;DHT22;11653;50.848;4.584;2023-04-03T02:20:08;3.50;99.90
22974;DHT22;11653;50.848;4.584;2023-04-03T02:22:34;3.50;99.90
22974;DHT22;11653;50.848;4.584;2023-04-03T02:25:00;3.50;99.90
22974;DHT22;11653;50.848;4.584;2023-04-03T02:27:26;3.50;99.90
22974;DHT22;11653;50.848;4.584;2023-04-03T02:29:51;3.30;99.90
22974;DHT22;11653;50.848;4.584;2023-04-03T02:32:17;3.30;99.90
22974;DHT22;11653;50.848;4.584;2023-04-03T02:34:43;3.30;99.90
22974;DHT22;11653;50.848;4.584;2023-04-03T02:37:08;3.30;99.90
22974;DHT22;11653;50.848;4.584;2023-04-03T02:39:34;3.40;99.90
22974;DHT22;11653;50.848;4.584;2023-04-03T02:42:00;3.40;99.90
22974;DHT22;11653;50.848;4.584;2023-04-03T02:44:26;3.40;99.90
22974;DHT22;11653;50.848;4.584;2023-04-03T02:46:52;3.40;99.90
22974;DHT22;11653;50.848;4.584;2023-04-03T02:49:17;3.40;99.90
22974;DHT22;11653;50.848;4.584;2023-04-03T02:51:43;3.40;99.90
22974;DHT22;11653;50.848;4.584;2023-04-03T02:54:09;3.40;99.90
22974;DHT22;11653;50.848;4.584;2023-04-03T02:56:35;3.30;99.90
22974;DHT22;11653;50.848;4.584;2023-04-03T02:59:01;3.30;99.90
22974;DHT22;11653;50.848;4.584;2023-04-03T03:01:27;3.30;99.90
22974;DHT22;11653;50.848;4.584;2023-04-03T03:03:57;3.20;99.90
22974;DHT22;11653;50.848;4.584;2023-04-03T03:06:23;3.20;99.90
22974;DHT22;11653;50.848;4.584;2023-04-03T03:08:49;3.10;99.90
22974;DHT22;11653;50.848;4.584;2023-04-03T03:11:15;3.10;99.90
22974;DHT22;11653;50.848;4.584;2023-04-03T03:13:41;3.10;99.90
22974;DHT22;11653;50.848;4.584;2023-04-03T03:16:07;3.00;99.90
22974;DHT22;11653;50.848;4.584;2023-04-03T03:18:33;3.00;99.90
22974;DHT22;11653;50.848;4.584;2023-04-03T03:21:00;3.00;99.90
22974;DHT22;11653;50.848;4.584;2023-04-03T03:23:28;2.90;99.90
22974;DHT22;11653;50.848;4.584;2023-04-03T03:26:03;2.90;99.90
22974;DHT22;11653;50.848;4.584;2023-04-03T03:28:29;2.80;99.90
22974;DHT22;11653;50.848;4.584;2023-04-03T03:30:59;2.80;99.90
22974;DHT22;11653;50.848;4.584;2023-04-03T03:33:25;2.80;99.90
22974;DHT22;11653;50.848;4.584;2023-04-03T03:35:52;2.70;99.90
22974;DHT22;11653;50.848;4.584;2023-04-03T03:38:18;2.70;99.90
22974;DHT22;11653;50.848;4.584;2023-04-03T03:40:44;2.70;99.90
22974;DHT22;11653;50.848;4.584;2023-04-03T03:43:10;2.70;99.90
22974;DHT22;11653;50.848;4.584;2023-04-03T03:45:35;2.60;99.90
22974;DHT22;11653;50.848;4.584;2023-04-03T03:48:02;2.50;99.90
22974;DHT22;11653;50.848;4.584;2023-04-03T03:50:28;2.50;99.90
22974;DHT22;11653;50.848;4.584;2023-04-03T03:52:54;2.50;99.90
22974;DHT22;11653;50.848;4.584;2023-04-03T03:55:19;2.50;99.90
22974;DHT22;11653;50.848;4.584;2023-04-03T03:57:45;2.50;99.90
22974;DHT22;11653;50.848;4.584;2023-04-03T04:00:11;2.50;99.90
22974;DHT22;11653;50.848;4.584;2023-04-03T04:02:37;2.40;99.90
22974;DHT22;11653;50.848;4.584;2023-04-03T04:05:03;2.50;99.90
22974;DHT22;11653;50.848;4.584;2023-04-03T04:07:29;2.40;99.90
22974;DHT22;11653;50.848;4.584;2023-04-03T04:09:55;2.40;99.90
22974;DHT22;11653;50.848;4.584;2023-04-03T04:12:21;2.40;99.90
22974;DHT22;11653;50.848;4.584;2023-04-03T04:14:47;2.40;99.90
22974;DHT22;11653;50.848;4.584;2023-04-03T04:17:13;2.30;99.90
22974;DHT22;11653;50.848;4.584;2023-04-03T04:19:39;2.30;99.90
22974;DHT22;11653;50.848;4.584;2023-04-03T04:22:05;2.30;99.90
22974;DHT22;11653;50.848;4.584;2023-04-03T04:24:31;2.20;99.90
22974;DHT22;11653;50.848;4.584;2023-04-03T04:26:56;2.20;99.90
22974;DHT22;11653;50.848;4.584;2023-04-03T04:29:22;2.20;99.90
22974;DHT22;11653;50.848;4.584;2023-04-03T04:31:48;2.20;99.90
22974;DHT22;11653;50.848;4.584;2023-04-03T04:34:13;2.20;99.90
22974;DHT22;11653;50.848;4.584;2023-04-03T04:36:39;2.20;99.90
22974;DHT22;11653;50.848;4.584;2023-04-03T04:39:05;2.10;99.90
22974;DHT22;11653;50.848;4.584;2023-04-03T04:41:31;2.10;99.90
22974;DHT22;11653;50.848;4.584;2023-04-03T04:43:57;2.00;99.90
22974;DHT22;11653;50.848;4.584;2023-04-03T04:46:22;2.10;99.90
22974;DHT22;11653;50.848;4.584;2023-04-03T04:48:48;2.00;99.90
22974;DHT22;11653;50.848;4.584;2023-04-03T04:51:15;2.00;99.90
22974;DHT22;11653;50.848;4.584;2023-04-03T04:53:41;2.00;99.90
22974;DHT22;11653;50.848;4.584;2023-04-03T04:56:07;2.00;99.90
22974;DHT22;11653;50.848;4.584;2023-04-03T04:58:32;2.00;99.90
22974;DHT22;11653;50.848;4.584;2023-04-03T05:00:59;2.00;99.90
22974;DHT22;11653;50.848;4.584;2023-04-03T05:03:25;2.00;99.90
22974;DHT22;11653;50.848;4.584;2023-04-03T05:05:51;2.00;99.90
22974;DHT22;11653;50.848;4.584;2023-04-03T05:08:16;1.90;99.90
22974;DHT22;11653;50.848;4.584;2023-04-03T05:10:42;1.90;99.90
22974;DHT22;11653;50.848;4.584;2023-04-03T05:13:09;1.90;99.90
22974;DHT22;11653;50.848;4.584;2023-04-03T05:15:35;1.90;99.90
22974;DHT22;11653;50.848;4.584;2023-04-03T05:18:01;1.90;99.90
22974;DHT22;11653;50.848;4.584;2023-04-03T05:20:26;1.90;99.90
22974;DHT22;11653;50.848;4.584;2023-04-03T05:22:52;1.90;99.90
22974;DHT22;11653;50.848;4.584;2023-04-03T05:25:17;1.90;99.90
22974;DHT22;11653;50.848;4.584;2023-04-03T05:27:43;1.90;99.90
22974;DHT22;11653;50.848;4.584;2023-04-03T05:30:09;1.90;99.90
22974;DHT22;11653;50.848;4.584;2023-04-03T05:32:35;1.90;99.90
22974;DHT22;11653;50.848;4.584;2023-04-03T05:35:01;1.90;99.90
22974;DHT22;11653;50.848;4.584;2023-04-03T05:37:26;1.90;99.90
22974;DHT22;11653;50.848;4.584;2023-04-03T05:39:52;2.00;99.90
22974;DHT22;11653;50.848;4.584;2023-04-03T05:42:18;2.10;99.90
22974;DHT22;11653;50.848;4.584;2023-04-03T05:44:43;2.20;99.90
22974;DHT22;11653;50.848;4.584;2023-04-03T05:47:11;2.50;99.90
22974;DHT22;11653;50.848;4.584;2023-04-03T05:49:37;3.10;99.90
22974;DHT22;11653;50.848;4.584;2023-04-03T05:52:17;3.60;99.90
22974;DHT22;11653;50.848;4.584;2023-04-03T05:54:43;4.10;99.90
22974;DHT22;11653;50.848;4.584;2023-04-03T05:57:12;4.70;99.90
22974;DHT22;11653;50.848;4.584;2023-04-03T05:59:37;5.20;99.90
22974;DHT22;11653;50.848;4.584;2023-04-03T06:02:03;5.80;99.90
22974;DHT22;11653;50.848;4.584;2023-04-03T06:04:28;6.30;99.90
22974;DHT22;11653;50.848;4.584;2023-04-03T06:06:57;6.50;99.90
22974;DHT22;11653;50.848;4.584;2023-04-03T06:09:26;6.70;99.90
22974;DHT22;11653;50.848;4.584;2023-04-03T06:11:52;6.90;99.90
22974;DHT22;11653;50.848;4.584;2023-04-03T06:14:19;7.30;99.90
22974;DHT22;11653;50.848;4.584;2023-04-03T06:16:45;7.70;99.90
22974;DHT22;11653;50.848;4.584;2023-04-03T06:19:11;8.10;99.90
22974;DHT22;11653;50.848;4.584;2023-04-03T06:21:37;8.70;99.90
22974;DHT22;11653;50.848;4.584;2023-04-03T06:24:04;9.20;99.90
22974;DHT22;11653;50.848;4.584;2023-04-03T06:26:30;9.70;99.90
22974;DHT22;11653;50.848;4.584;2023-04-03T06:28:56;10.30;99.90
22974;DHT22;11653;50.848;4.584;2023-04-03T06:31:22;10.80;99.90
22974;DHT22;11653;50.848;4.584;2023-04-03T06:33:47;11.40;99.90
22974;DHT22;11653;50.848;4.584;2023-04-03T06:36:13;11.90;99.90
22974;DHT22;11653;50.848;4.584;2023-04-03T06:38:39;12.60;99.90
22974;DHT22;11653;50.848;4.584;2023-04-03T06:41:04;13.00;99.90
22974;DHT22;11653;50.848;4.584;2023-04-03T06:43:30;13.30;99.90
22974;DHT22;11653;50.848;4.584;2023-04-03T06:45:58;13.70;98.60
22974;DHT22;11653;50.848;4.584;2023-04-03T06:48:24;13.40;97.60
22974;DHT22;11653;50.848;4.584;2023-04-03T06:50:50;13.30;97.80
22974;DHT22;11653;50.848;4.584;2023-04-03T06:53:16;13.50;97.80
22974;DHT22;11653;50.848;4.584;2023-04-03T06:55:41;13.60;96.40
22974;DHT22;11653;50.848;4.584;2023-04-03T06:58:07;13.90;97.00
22974;DHT22;11653;50.848;4.584;2023-04-03T07:00:33;13.70;95.80
22974;DHT22;11653;50.848;4.584;2023-04-03T07:02:58;13.70;96.40
22974;DHT22;11653;50.848;4.584;2023-04-03T07:05:25;13.90;95.80
22974;DHT22;11653;50.848;4.584;2023-04-03T07:07:51;13.90;95.20
22974;DHT22;11653;50.848;4.584;2023-04-03T07:10:17;13.30;94.90
22974;DHT22;11653;50.848;4.584;2023-04-03T07:12:43;12.90;96.10
22974;DHT22;11653;50.848;4.584;2023-04-03T07:15:09;12.70;97.00
22974;DHT22;11653;50.848;4.584;2023-04-03T07:17:35;12.40;97.20
22974;DHT22;11653;50.848;4.584;2023-04-03T07:20:02;12.50;97.80
22974;DHT22;11653;50.848;4.584;2023-04-03T07:22:29;12.80;97.30
22974;DHT22;11653;50.848;4.584;2023-04-03T07:24:55;13.40;97.90
22974;DHT22;11653;50.848;4.584;2023-04-03T07:27:21;13.90;95.90
22974;DHT22;11653;50.848;4.584;2023-04-03T07:29:46;14.50;94.90
22974;DHT22;11653;50.848;4.584;2023-04-03T07:32:14;14.80;93.10
22974;DHT22;11653;50.848;4.584;2023-04-03T07:34:40;14.90;92.80
22974;DHT22;11653;50.848;4.584;2023-04-03T07:37:06;14.80;92.50
22974;DHT22;11653;50.848;4.584;2023-04-03T07:39:32;15.30;91.90
22974;DHT22;11653;50.848;4.584;2023-04-03T07:41:58;15.70;91.10
22974;DHT22;11653;50.848;4.584;2023-04-03T07:44:24;16.00;90.30
22974;DHT22;11653;50.848;4.584;2023-04-03T07:46:50;15.80;88.30
22974;DHT22;11653;50.848;4.584;2023-04-03T07:49:17;15.10;90.20
22974;DHT22;11653;50.848;4.584;2023-04-03T07:51:44;15.10;89.40
22974;DHT22;11653;50.848;4.584;2023-04-03T07:54:09;15.30;89.80
22974;DHT22;11653;50.848;4.584;2023-04-03T07:56:35;15.30;88.50
22974;DHT22;11653;50.848;4.584;2023-04-03T07:59:01;15.00;90.30
22974;DHT22;11653;50.848;4.584;2023-04-03T08:01:27;15.40;89.20
22974;DHT22;11653;50.848;4.584;2023-04-03T08:03:54;14.90;88.80
22974;DHT22;11653;50.848;4.584;2023-04-03T08:06:19;15.10;90.30
22974;DHT22;11653;50.848;4.584;2023-04-03T08:08:45;15.60;88.20
22974;DHT22;11653;50.848;4.584;2023-04-03T08:11:11;15.20;87.40
22974;DHT22;11653;50.848;4.584;2023-04-03T08:13:37;15.30;87.60
22974;DHT22;11653;50.848;4.584;2023-04-03T08:16:10;15.50;88.20
22974;DHT22;11653;50.848;4.584;2023-04-03T08:18:37;15.20;87.50
22974;DHT22;11653;50.848;4.584;2023-04-03T08:21:09;14.80;87.20
22974;DHT22;11653;50.848;4.584;2023-04-03T08:23:36;14.60;89.70
22974;DHT22;11653;50.848;4.584;2023-04-03T08:26:13;14.70;88.60
22974;DHT22;11653;50.848;4.584;2023-04-03T08:28:40;14.70;88.30
22974;DHT22;11653;50.848;4.584;2023-04-03T08:31:07;14.60;88.50
22974;DHT22;11653;50.848;4.584;2023-04-03T08:33:36;14.00;90.60
22974;DHT22;11653;50.848;4.584;2023-04-03T08:36:06;14.60;90.00
22974;DHT22;11653;50.848;4.584;2023-04-03T08:38:33;14.70;89.70
22974;DHT22;11653;50.848;4.584;2023-04-03T08:41:14;15.00;87.20
22974;DHT22;11653;50.848;4.584;2023-04-03T08:44:07;15.30;87.00
22974;DHT22;11653;50.848;4.584;2023-04-03T08:46:42;15.30;84.70
22974;DHT22;11653;50.848;4.584;2023-04-03T08:49:21;15.80;84.10
22974;DHT22;11653;50.848;4.584;2023-04-03T08:51:50;15.00;83.60
22974;DHT22;11653;50.848;4.584;2023-04-03T08:54:35;15.20;85.30
22974;DHT22;11653;50.848;4.584;2023-04-03T08:57:04;16.00;84.90
22974;DHT22;11653;50.848;4.584;2023-04-03T08:59:34;16.80;80.40
22974;DHT22;11653;50.848;4.584;2023-04-03T09:02:04;16.20;79.50
22974;DHT22;11653;50.848;4.584;2023-04-03T09:04:37;15.80;81.70
22974;DHT22;11653;50.848;4.584;2023-04-03T09:07:20;15.20;81.30
22974;DHT22;11653;50.848;4.584;2023-04-03T09:09:47;15.20;82.00
22974;DHT22;11653;50.848;4.584;2023-04-03T09:21:12;14.80;82.30
22974;DHT22;11653;50.848;4.584;2023-04-03T09:26:13;15.80;80.10
22974;DHT22;11653;50.848;4.584;2023-04-03T09:28:40;16.20;78.50
22974;DHT22;11653;50.848;4.584;2023-04-03T09:31:20;16.50;74.70
22974;DHT22;11653;50.848;4.584;2023-04-03T09:33:49;15.80;76.70
22974;DHT22;11653;50.848;4.584;2023-04-03T09:36:37;15.40;75.40
22974;DHT22;11653;50.848;4.584;2023-04-03T09:39:28;15.40;78.60
22974;DHT22;11653;50.848;4.584;2023-04-03T09:42:01;15.60;77.60
22974;DHT22;11653;50.848;4.584;2023-04-03T09:44:38;15.40;77.70
22974;DHT22;11653;50.848;4.584;2023-04-03T09:47:25;15.70;77.70
22974;DHT22;11653;50.848;4.584;2023-04-03T09:49:54;16.00;75.90
22974;DHT22;11653;50.848;4.584;2023-04-03T09:52:34;15.70;76.80
22974;DHT22;11653;50.848;4.584;2023-04-03T09:55:25;16.00;78.50
22974;DHT22;11653;50.848;4.584;2023-04-03T09:58:02;16.80;77.70
22974;DHT22;11653;50.848;4.584;2023-04-03T10:00:35;17.00;74.00
22974;DHT22;11653;50.848;4.584;2023-04-03T10:03:02;16.30;75.50
22974;DHT22;11653;50.848;4.584;2023-04-03T10:05:35;15.60;79.10
22974;DHT22;11653;50.848;4.584;2023-04-03T10:10:40;16.00;79.50
22974;DHT22;11653;50.848;4.584;2023-04-03T10:13:20;16.70;75.50
22974;DHT22;11653;50.848;4.584;2023-04-03T10:15:55;17.00;74.30
22974;DHT22;11653;50.848;4.584;2023-04-03T10:18:43;17.50;75.60
22974;DHT22;11653;50.848;4.584;2023-04-03T10:21:20;17.60;71.70
22974;DHT22;11653;50.848;4.584;2023-04-03T10:23:54;16.60;73.80
22974;DHT22;11653;50.848;4.584;2023-04-03T10:34:28;17.40;72.30
22974;DHT22;11653;50.848;4.584;2023-04-03T10:39:59;18.20;67.50
22974;DHT22;11653;50.848;4.584;2023-04-03T10:53:59;14.50;72.60
22974;DHT22;11653;50.848;4.584;2023-04-03T10:56:39;15.10;73.10
22974;DHT22;11653;50.848;4.584;2023-04-03T11:01:48;16.20;68.70
22974;DHT22;11653;50.848;4.584;2023-04-03T11:04:16;14.70;70.60
22974;DHT22;11653;50.848;4.584;2023-04-03T11:06:45;13.60;72.50
22974;DHT22;11653;50.848;4.584;2023-04-03T11:09:22;14.10;73.40
22974;DHT22;11653;50.848;4.584;2023-04-03T11:11:53;13.90;71.30
22974;DHT22;11653;50.848;4.584;2023-04-03T11:14:30;13.40;72.90
22974;DHT22;11653;50.848;4.584;2023-04-03T11:20:15;13.60;73.70
22974;DHT22;11653;50.848;4.584;2023-04-03T11:22:47;13.60;73.50
22974;DHT22;11653;50.848;4.584;2023-04-03T11:25:25;14.20;73.10
22974;DHT22;11653;50.848;4.584;2023-04-03T11:27:57;14.30;70.40
22974;DHT22;11653;50.848;4.584;2023-04-03T11:36:38;13.90;71.30
22974;DHT22;11653;50.848;4.584;2023-04-03T11:39:23;14.30;67.70
22974;DHT22;11653;50.848;4.584;2023-04-03T11:41:50;14.10;63.60
22974;DHT22;11653;50.848;4.584;2023-04-03T11:47:00;14.50;65.80
22974;DHT22;11653;50.848;4.584;2023-04-03T12:05:49;14.50;61.30
22974;DHT22;11653;50.848;4.584;2023-04-03T12:08:27;13.80;60.70
22974;DHT22;11653;50.848;4.584;2023-04-03T12:16:26;13.00;65.60
22974;DHT22;11653;50.848;4.584;2023-04-03T12:26:44;13.50;62.20
22974;DHT22;11653;50.848;4.584;2023-04-03T12:48:16;10.80;67.90
22974;DHT22;11653;50.848;4.584;2023-04-03T12:50:45;11.10;68.00
22974;DHT22;11653;50.848;4.584;2023-04-03T12:53:29;11.00;65.30
22974;DHT22;11653;50.848;4.584;2023-04-03T12:56:29;11.20;68.60
22974;DHT22;11653;50.848;4.584;2023-04-03T12:59:12;11.30;64.30
22974;DHT22;11653;50.848;4.584;2023-04-03T13:01:38;10.80;66.20
22974;DHT22;11653;50.848;4.584;2023-04-03T13:04:04;11.20;68.60
22974;DHT22;11653;50.848;4.584;2023-04-03T13:06:35;11.40;65.70
22974;DHT22;11653;50.848;4.584;2023-04-03T13:09:03;11.50;68.50
22974;DHT22;11653;50.848;4.584;2023-04-03T13:11:37;11.50;66.00
22974;DHT22;11653;50.848;4.584;2023-04-03T13:14:15;11.60;65.60
22974;DHT22;11653;50.848;4.584;2023-04-03T13:16:41;11.20;67.00
22974;DHT22;11653;50.848;4.584;2023-04-03T13:19:16;11.20;66.70
22974;DHT22;11653;50.848;4.584;2023-04-03T13:21:42;11.00;65.60
22974;DHT22;11653;50.848;4.584;2023-04-03T13:24:09;11.10;69.70
22974;DHT22;11653;50.848;4.584;2023-04-03T13:26:36;11.20;65.80
22974;DHT22;11653;50.848;4.584;2023-04-03T13:29:07;11.40;66.40
22974;DHT22;11653;50.848;4.584;2023-04-03T13:31:42;11.30;69.40
22974;DHT22;11653;50.848;4.584;2023-04-03T13:34:13;10.80;67.90
22974;DHT22;11653;50.848;4.584;2023-04-03T13:37:01;10.80;70.00
22974;DHT22;11653;50.848;4.584;2023-04-03T13:39:33;11.30;70.40
22974;DHT22;11653;50.848;4.584;2023-04-03T13:44:45;11.60;70.20
22974;DHT22;11653;50.848;4.584;2023-04-03T13:47:22;11.20;67.60
22974;DHT22;11653;50.848;4.584;2023-04-03T13:50:03;11.00;72.30
22974;DHT22;11653;50.848;4.584;2023-04-03T13:52:41;11.20;72.60
22974;DHT22;11653;50.848;4.584;2023-04-03T13:55:53;11.30;71.20
22974;DHT22;11653;50.848;4.584;2023-04-03T13:58:24;11.40;68.30
22974;DHT22;11653;50.848;4.584;2023-04-03T14:03:31;11.40;69.80
22974;DHT22;11653;50.848;4.584;2023-04-03T14:05:58;11.40;70.60
22974;DHT22;11653;50.848;4.584;2023-04-03T14:08:23;11.50;70.20
22974;DHT22;11653;50.848;4.584;2023-04-03T14:10:50;11.10;68.70
22974;DHT22;11653;50.848;4.584;2023-04-03T14:13:19;10.80;68.80
22974;DHT22;11653;50.848;4.584;2023-04-03T14:15:46;10.80;66.70
22974;DHT22;11653;50.848;4.584;2023-04-03T14:18:15;11.00;66.90
22974;DHT22;11653;50.848;4.584;2023-04-03T14:20:42;10.90;65.50
22974;DHT22;11653;50.848;4.584;2023-04-03T14:23:08;10.90;68.40
22974;DHT22;11653;50.848;4.584;2023-04-03T14:25:35;11.00;68.90
22974;DHT22;11653;50.848;4.584;2023-04-03T14:28:06;11.00;67.40
22974;DHT22;11653;50.848;4.584;2023-04-03T14:30:37;11.00;66.80
22974;DHT22;11653;50.848;4.584;2023-04-03T14:33:03;11.20;67.20
22974;DHT22;11653;50.848;4.584;2023-04-03T14:35:29;10.90;65.00
22974;DHT22;11653;50.848;4.584;2023-04-03T14:37:55;10.80;63.70
22974;DHT22;11653;50.848;4.584;2023-04-03T14:40:26;10.90;66.60
22974;DHT22;11653;50.848;4.584;2023-04-03T14:42:53;10.80;66.20
22974;DHT22;11653;50.848;4.584;2023-04-03T14:45:21;10.90;67.40
22974;DHT22;11653;50.848;4.584;2023-04-03T14:47:55;10.90;65.60
22974;DHT22;11653;50.848;4.584;2023-04-03T14:50:23;10.80;65.00
22974;DHT22;11653;50.848;4.584;2023-04-03T14:52:52;10.90;67.50
22974;DHT22;11653;50.848;4.584;2023-04-03T14:55:21;11.00;66.70
22974;DHT22;11653;50.848;4.584;2023-04-03T14:57:48;11.00;69.80
22974;DHT22;11653;50.848;4.584;2023-04-03T15:00:19;10.70;70.70
22974;DHT22;11653;50.848;4.584;2023-04-03T15:02:45;10.60;70.20
22974;DHT22;11653;50.848;4.584;2023-04-03T15:05:11;10.40;71.10
22974;DHT22;11653;50.848;4.584;2023-04-03T15:07:40;10.50;71.80
22974;DHT22;11653;50.848;4.584;2023-04-03T15:10:16;10.60;71.30
22974;DHT22;11653;50.848;4.584;2023-04-03T15:12:43;10.70;71.00
22974;DHT22;11653;50.848;4.584;2023-04-03T15:15:09;10.90;72.70
22974;DHT22;11653;50.848;4.584;2023-04-03T15:17:36;11.10;72.90
22974;DHT22;11653;50.848;4.584;2023-04-03T15:20:03;10.80;71.20
22974;DHT22;11653;50.848;4.584;2023-04-03T15:22:29;10.80;71.40
22974;DHT22;11653;50.848;4.584;2023-04-03T15:24:54;10.90;70.70
22974;DHT22;11653;50.848;4.584;2023-04-03T15:27:20;11.10;71.20
22974;DHT22;11653;50.848;4.584;2023-04-03T15:29:46;11.00;68.80
22974;DHT22;11653;50.848;4.584;2023-04-03T15:32:12;11.00;69.20
22974;DHT22;11653;50.848;4.584;2023-04-03T15:34:38;11.10;72.40
22974;DHT22;11653;50.848;4.584;2023-04-03T15:37:04;11.00;72.90
22974;DHT22;11653;50.848;4.584;2023-04-03T15:39:30;11.00;73.00
22974;DHT22;11653;50.848;4.584;2023-04-03T15:41:56;11.00;71.10
22974;DHT22;11653;50.848;4.584;2023-04-03T15:44:25;11.00;70.90
22974;DHT22;11653;50.848;4.584;2023-04-03T15:46:51;11.00;72.70
22974;DHT22;11653;50.848;4.584;2023-04-03T15:49:17;11.00;72.80
22974;DHT22;11653;50.848;4.584;2023-04-03T15:51:44;10.90;75.10
22974;DHT22;11653;50.848;4.584;2023-04-03T15:54:10;10.70;73.20
22974;DHT22;11653;50.848;4.584;2023-04-03T15:56:36;10.80;74.60
22974;DHT22;11653;50.848;4.584;2023-04-03T15:59:01;10.80;74.50
22974;DHT22;11653;50.848;4.584;2023-04-03T16:01:27;10.80;75.50
22974;DHT22;11653;50.848;4.584;2023-04-03T16:03:53;10.70;72.90
22974;DHT22;11653;50.848;4.584;2023-04-03T16:06:19;10.60;74.40
22974;DHT22;11653;50.848;4.584;2023-04-03T16:08:47;10.60;74.90
22974;DHT22;11653;50.848;4.584;2023-04-03T16:11:14;10.60;75.90
22974;DHT22;11653;50.848;4.584;2023-04-03T16:13:40;10.60;75.50
22974;DHT22;11653;50.848;4.584;2023-04-03T16:16:06;10.70;76.90
22974;DHT22;11653;50.848;4.584;2023-04-03T16:18:34;10.80;76.30
22974;DHT22;11653;50.848;4.584;2023-04-03T16:21:00;10.60;75.60
22974;DHT22;11653;50.848;4.584;2023-04-03T16:23:26;10.60;76.80
22974;DHT22;11653;50.848;4.584;2023-04-03T16:25:51;10.40;76.60
22974;DHT22;11653;50.848;4.584;2023-04-03T16:28:18;10.40;76.50
22974;DHT22;11653;50.848;4.584;2023-04-03T16:30:45;10.40;76.40
22974;DHT22;11653;50.848;4.584;2023-04-03T16:33:12;10.40;78.20
22974;DHT22;11653;50.848;4.584;2023-04-03T16:35:38;10.50;77.30
22974;DHT22;11653;50.848;4.584;2023-04-03T16:38:04;10.40;77.60
22974;DHT22;11653;50.848;4.584;2023-04-03T16:40:31;10.30;77.90
22974;DHT22;11653;50.848;4.584;2023-04-03T16:42:56;10.40;78.30
22974;DHT22;11653;50.848;4.584;2023-04-03T16:45:22;10.50;78.90
22974;DHT22;11653;50.848;4.584;2023-04-03T16:47:48;10.40;77.50
22974;DHT22;11653;50.848;4.584;2023-04-03T16:50:14;10.30;77.00
22974;DHT22;11653;50.848;4.584;2023-04-03T16:52:39;10.30;79.00
22974;DHT22;11653;50.848;4.584;2023-04-03T16:55:06;10.30;79.80
22974;DHT22;11653;50.848;4.584;2023-04-03T16:57:32;10.30;79.90
22974;DHT22;11653;50.848;4.584;2023-04-03T16:59:58;10.30;79.00
22974;DHT22;11653;50.848;4.584;2023-04-03T17:02:24;10.10;78.90
22974;DHT22;11653;50.848;4.584;2023-04-03T17:04:50;10.00;79.70
22974;DHT22;11653;50.848;4.584;2023-04-03T17:07:18;10.10;79.40
22974;DHT22;11653;50.848;4.584;2023-04-03T17:09:44;10.00;78.20
22974;DHT22;11653;50.848;4.584;2023-04-03T17:12:10;9.90;79.60
22974;DHT22;11653;50.848;4.584;2023-04-03T17:14:35;10.00;78.00
22974;DHT22;11653;50.848;4.584;2023-04-03T17:17:02;9.90;78.80
22974;DHT22;11653;50.848;4.584;2023-04-03T17:19:28;10.00;79.20
22974;DHT22;11653;50.848;4.584;2023-04-03T17:21:54;10.00;79.40
22974;DHT22;11653;50.848;4.584;2023-04-03T17:24:20;9.90;79.00
22974;DHT22;11653;50.848;4.584;2023-04-03T17:26:46;9.90;78.70
22974;DHT22;11653;50.848;4.584;2023-04-03T17:29:12;9.70;78.60
22974;DHT22;11653;50.848;4.584;2023-04-03T17:31:37;9.60;80.30
22974;DHT22;11653;50.848;4.584;2023-04-03T17:34:03;9.50;80.30
22974;DHT22;11653;50.848;4.584;2023-04-03T17:36:30;9.50;80.80